Weather observations for the past three days for
Cherokee, Cherokee Municipal Airport
Metric (Imperial)
Date Time (cdt) Wind (kph) Vis. (km) Weather Sky Cond. Temperature (ºC) Relative Humidity Wind Chill (°C) Heat Index (°C) Pressure Precipitation (cm)
Air Dwpt 6 hour altimeter (cm) sea level (mb) 1 hr 3 hr 6 hr
Max. Min.
09 09:15 S 6 16.09 Mostly Cloudy SCT100 BKN120 13 4 55% 75.62 0.0
09 08:55 S 4 16.09 Mostly Cloudy BKN100 BKN120 13 3 51% 75.62 0.0
09 08:35 N 6 16.09 Partly Cloudy SCT110 13 2 47% 75.64 0.0
09 08:15 N 6 16.09 Mostly Cloudy BKN110 12 2 51% 75.64 0.0
09 07:55 N 15 16.09 A Few Clouds FEW120 13 0 41% 75.64 0.0
09 07:35 NW 15 16.09 A Few Clouds FEW120 13 0 41% 75.64 0.0
09 07:15 NW 9 16.09 Fair CLR 12 0 44% 75.62 0.0
09 06:55 N 20 G 31 16.09 Fair CLR 12 0 10.7 3.1 44% 75.59 0.0
09 06:35 Vrbl 6 16.09 Fair CLR 6 1 71% 75.46 0.0
09 06:15 S 9 16.09 Fair CLR 6 0 66% 4 75.44 0.0
09 05:55 S 9 16.09 Fair CLR 5 1 76% 3 75.41 0.0
09 05:35 S 11 16.09 Fair CLR 5 1 76% 3 75.41 0.0
09 05:15 S 9 16.09 Fair CLR 4 0 75% 2 75.41 0.0
09 04:55 S 6 16.09 Fair CLR 5 1 76% 75.41 0.0
09 04:35 S 7 16.09 Fair CLR 4 2 87% 2 75.41 0.0
09 04:15 SW 6 16.09 Fair CLR 4 1 81% 75.41 0.0
09 03:55 S 6 16.09 Fair CLR 4 1 81% 75.41 0.0
09 03:35 S 6 16.09 Fair CLR 5 1 76% 75.41 0.0
09 03:15 S 4 16.09 Fair CLR 5 2 81% 75.41 0.0
09 02:55 SW 7 16.09 Fair CLR 4 0 75% 2 75.44 0.0
09 02:35 SE 6 16.09 Fair CLR 5 1 76% 75.44 0.0
09 02:15 SW 7 16.09 Fair CLR 5 0 70% 4 75.46 0.0
09 01:55 S 2 16.09 Fair CLR 6 0 66% 75.49 0.0
09 01:35 SW 6 16.09 Fair CLR 7 0 61% 75.49 0.0
09 01:15 S 6 16.09 Fair CLR 7 0 61% 75.51 0.0
09 00:55 S 6 16.09 Fair CLR 7 0 23.8 6.3 61% 75.51 0.0
09 00:35 Calm 16.09 Fair CLR 7 0 61% 75.51 0.0
09 00:15 NE 2 16.09 Fair CLR 9 1 58% 75.51 0.0
08 23:56 NE 4 16.09 Fair CLR 12 0 44% 75.51 0.0
08 23:35 NE 6 16.09 Fair CLR 12 0 44% 75.51 0.0
08 23:15 N 6 16.09 Fair CLR 13 0 41% 75.51 0.0
08 22:55 N 7 16.09 Fair CLR 14 0 39% 75.51 0.0
08 22:35 N 9 16.09 Fair CLR 15 1 39% 75.49 0.0
08 22:15 N 11 16.09 Fair CLR 16 1 36% 75.46 0.0
08 21:55 N 15 16.09 Fair CLR 17 2 37% 75.44 0.0
08 21:35 NW 15 16.09 Fair CLR 16 3 42% 75.41 0.0
08 21:15 NW 6 16.09 Fair CLR 17 2 37% 75.36 0.0
08 20:55 NW 6 16.09 A Few Clouds FEW110 18 2 34% 75.34 0.0
08 20:35 N 13 16.09 Partly Cloudy SCT110 20 2 30% 75.34 0.0
08 20:15 NW 15 16.09 Partly Cloudy SCT110 21 1 27% 75.31 0.0
08 19:35 W 15 16.09 A Few Clouds FEW100 FEW120 23 0 22% 75.29 0.0
08 19:15 W 11 16.09 A Few Clouds FEW100 FEW120 22 -1 22% 75.29 0.0
08 18:55 NW 19 G 37 16.09 Fair CLR 23 -2 25.4 22.1 19% 75.29 0.0
08 18:35 NW 17 G 28 16.09 Fair CLR 24 -1 19% 24 75.29 0.0
08 17:55 NW 22 G 39 16.09 Fair CLR 24 0 21% 25 75.29 0.0
08 17:15 W 30 G 39 16.09 A Few Clouds FEW110 25 0 19% 25 75.29 0.0
08 16:55 W 19 G 37 16.09 Fair CLR 25 1 21% 25 75.29 0.0
08 16:35 W 24 G 31 16.09 A Few Clouds FEW120 25 1 21% 25 75.29 0.0
08 16:16 W 17 G 30 16.09 Partly Cloudy SCT110 24 0 21% 25 75.31 0.0
08 15:55 W 20 G 30 16.09 Mostly Cloudy BKN110 25 1 21% 25 75.31 0.0
08 15:35 W 19 G 28 16.09 Mostly Cloudy BKN110 23 2 25% 75.34 0.0
08 15:15 W 22 16.09 Mostly Cloudy BKN110 23 2 25% 75.39 0.0
08 14:55 NW 11 16.09 Mostly Cloudy BKN100 23 1 23% 75.41 0.0
08 14:35 SW 22 16.09 Mostly Cloudy BKN100 23 0 22% 75.44 0.0
08 14:15 W 13 16.09 Mostly Cloudy BKN100 24 2 24% 25 75.44 0.0
08 13:55 W 11 G 31 16.09 Mostly Cloudy BKN100 BKN120 23 0 22% 75.46 0.0
08 13:35 Vrbl 6 G 31 16.09 Partly Cloudy SCT100 23 0 22% 75.49 0.0
08 13:15 SW 20 G 33 16.09 Partly Cloudy SCT110 23 0 22% 75.51 0.0
08 12:36 NW 20 G 28 16.09 Fair CLR 22 -1 22% 75.54 0.0
08 12:15 NW 13 16.09 Fair CLR 22 0 23% 75.59 0.0
08 11:55 W 13 16.09 Fair CLR 21 -1 23% 75.59 0.0
08 11:35 SW 15 G 26 16.09 Fair CLR 21 -1 23% 75.62 0.0
08 11:15 W 9 16.09 Fair CLR 20 -2 23% 75.62 0.0
08 10:55 W 7 16.09 Fair CLR 20 -1 24% 75.64 0.0
08 10:35 SW 11 16.09 Fair CLR 20 -2 23% 75.64 0.0
08 10:15 SW 17 16.09 Fair CLR 19 -1 26% 75.67 0.0
08 09:55 W 11 16.09 Fair CLR 18 -1 28% 75.67 0.0
08 09:35 W 7 16.09 Fair CLR 17 1 34% 75.69 0.0
08 09:15 Vrbl 4 16.09 Fair CLR 14 2 44% 75.69 0.0
08 08:35 Vrbl 2 16.09 Fair CLR 11 2 54% 75.72 0.0
08 08:15 S 4 16.09 Fair CLR 9 2 62% 75.72 0.0
08 07:55 Calm 16.09 Fair CLR 7 2 71% 75.74 0.0
08 07:35 Calm 14.48 Fair CLR 5 2 81% 75.74 0.0
08 07:15 S 2 16.09 Fair CLR 4 2 87% 75.74 0.0
08 06:55 SW 2 16.09 Fair CLR 3 1 5.3 1.5 87% 75.72 0.0
08 06:35 SW 2 16.09 Fair CLR 3 0 81% 75.69 0.0
08 06:15 NE 4 16.09 Fair CLR 3 0 81% 75.69 0.0
08 05:55 Calm 16.09 Fair CLR 3 0 81% 75.69 0.0
08 05:35 N 4 16.09 Fair CLR 3 -1 75% 75.69 0.0
08 05:15 Calm 16.09 Fair CLR 3 -1 75% 75.72 0.0
08 04:55 SW 2 16.09 Fair CLR 3 -1 75% 75.72 0.0
08 04:35 SW 2 16.09 Fair CLR 2 0 87% 75.72 0.0
08 04:15 SW 4 16.09 Fair CLR 3 -1 75% 75.72 0.0
08 03:55 Calm 16.09 Fair CLR 2 0 87% 75.72 0.0
08 03:35 N 2 12.87 Fair CLR 3 0 81% 75.74 0.0
08 03:15 Calm 14.48 Fair CLR 2 0 87% 75.74 0.0
08 02:35 N 4 16.09 Fair CLR 3 -1 75% 75.74 0.0
08 02:15 N 2 16.09 Fair CLR 3 -1 75% 75.77 0.0
08 01:55 Calm 16.09 Fair CLR 4 -1 70% 75.77 0.0
08 01:35 SW 4 16.09 Fair CLR 2 -1 81% 75.77 0.0
08 01:15 N 4 16.09 Fair CLR 4 0 75% 75.77 0.0
08 00:55 Calm 16.09 Fair CLR 4 1 18.1 3.2 81% 75.77 0.0
08 00:35 N 4 16.09 Fair CLR 6 1 71% 75.77 0.0
08 00:15 NE 6 16.09 Fair CLR 6 0 66% 75.77 0.0
07 23:55 Vrbl 2 16.09 Fair CLR 5 -1 66% 75.77 0.0
07 23:35 S 2 16.09 Fair CLR 6 0 66% 75.77 0.0
07 23:15 Calm 16.09 Fair CLR 6 -2 57% 75.79 0.0
07 22:55 N 4 16.09 Fair CLR 7 -2 53% 75.79 0.0
07 22:34 NW 2 16.09 Fair CLR 7 -1 57% 75.77 0.0
07 21:55 Vrbl 2 16.09 Fair CLR 9 -2 46% 75.77 0.0
07 21:35 NW 2 16.09 Fair CLR 8 -1 53% 75.77 0.0
07 21:15 N 2 16.09 Fair CLR 11 -2 41% 75.74 0.0
07 20:55 N 4 16.09 Fair CLR 14 -4 29% 75.74 0.0
07 20:35 N 4 16.09 Fair CLR 15 -5 25% 75.72 0.0
07 20:16 N 6 16.09 Fair CLR 15 -4 27% 75.72 0.0
07 19:55 NW 11 16.09 Fair CLR 16 -5 23% 75.69 0.0
07 19:35 NW 9 16.09 Fair CLR 17 -5 22% 75.69 0.0
07 19:15 NW 9 16.09 Fair CLR 18 -6 19% 75.69 0.0
07 18:56 NW 17 16.09 Fair CLR 18 -5 19.1 15.8 21% 75.69 0.0
07 18:36 Vrbl 7 16.09 Fair CLR 18 -5 21% 75.69 0.0
07 18:15 W 6 16.09 Fair CLR 18 -4 22% 75.69 0.0
07 17:55 NW 6 16.09 Fair CLR 18 -4 22% 75.69 0.0
07 17:35 Vrbl 9 16.09 Fair CLR 19 -5 19% 75.69 0.0
07 17:15 Vrbl 2 16.09 Fair CLR 19 -5 19% 75.69 0.0
07 16:55 W 15 16.09 Fair CLR 19 -4 21% 75.69 0.0
07 16:35 Vrbl 6 16.09 Fair CLR 19 -4 21% 75.72 0.0
07 16:15 Vrbl 9 16.09 Fair CLR 18 -3 24% 75.72 0.0
07 15:55 W 6 16.09 Fair CLR 18 -3 24% 75.72 0.0
07 15:35 NW 15 16.09 Fair CLR 18 -2 26% 75.74 0.0
07 15:15 E 15 16.09 Fair CLR 18 -3 24% 75.77 0.0
07 14:55 N 13 16.09 Fair CLR 18 -3 24% 75.77 0.0
07 14:35 W 7 16.09 Fair CLR 17 -3 25% 75.79 0.0
07 14:15 N 17 16.09 Fair CLR 17 -2 27% 75.79 0.0
07 13:55 Vrbl 11 16.09 Fair CLR 17 -2 27% 75.79 0.0
07 13:36 N 15 16.09 Fair CLR 17 -3 25% 75.79 0.0
07 13:15 SW 7 16.09 Fair CLR 16 -3 27% 75.79 0.0
07 12:55 N 15 16.09 Fair CLR 16 -3 16.9 6.5 27% 75.82 0.0
07 12:35 Vrbl 7 16.09 Fair CLR 17 0 32% 75.82 0.0
07 12:15 NW 9 16.09 Fair CLR 16 -2 29% 75.84 0.0
07 11:55 Vrbl 9 16.09 Fair CLR 15 -2 31% 75.84 0.0
07 11:35 Vrbl 4 16.09 Fair CLR 15 -1 34% 75.84 0.0
07 11:15 Vrbl 6 16.09 Fair CLR 14 -2 33% 75.84 0.0
07 10:55 Vrbl 2 16.09 Fair CLR 14 -2 33% 75.87 0.0
07 10:35 Vrbl 6 16.09 Fair CLR 13 -1 38% 75.84 0.0
07 10:15 Vrbl 11 16.09 Fair CLR 13 -2 36% 75.87 0.0
07 09:55 E 9 16.09 Fair CLR 12 -2 38% 75.87 0.0
07 09:35 NE 11 16.09 Fair CLR 11 -1 44% 75.9 0.0
07 09:15 Vrbl 9 16.09 Fair CLR 10 -1 47% 9 75.9 0.0
07 08:55 NE 9 16.09 Fair CLR 9 -2 46% 8 75.9 0.0
07 08:35 N 9 16.09 A Few Clouds FEW120 8 -2 50% 7 75.87 0.0
07 08:15 N 9 16.09 Fair CLR 7 -2 53% 5 75.87 0.0
07 07:55 N 17 16.09 A Few Clouds FEW095 7 -3 49% 4 75.87 0.0
07 07:35 Vrbl 9 16.09 Partly Cloudy SCT120 8 -2 50% 7 75.82 0.0
07 07:16 S 11 16.09 Partly Cloudy SCT120 8 -2 50% 6 75.82 0.0
07 06:55 S 11 16.09 Partly Cloudy SCT110 9 -1 11.8 3.5 50% 8 75.82 0.0
07 06:35 W 11 16.09 Overcast OVC110 11 -2 41% 75.82 0.0
07 06:15 W 13 16.09 Mostly Cloudy BKN095 BKN120 11 -2 41% 75.82 0.0
07 05:55 W 13 16.09 Mostly Cloudy FEW065 BKN095 12 -3 35% 75.82 0.0
07 05:35 W 19 16.09 Mostly Cloudy FEW065 BKN095 BKN120 9 -3 43% 7 75.84 0.0
07 05:15 Calm 16.09 Partly Cloudy SCT120 7 -4 46% 75.84 0.0
07 04:55 SW 15 16.09 Mostly Cloudy FEW075 BKN090 BKN120 8 -3 46% 6 75.84 0.0
07 04:35 S 13 16.09 Overcast FEW047 SCT080 OVC090 7 -3 49% 5 75.84 0.0
07 04:15 S 20 16.09 Mostly Cloudy FEW043 SCT070 BKN090 8 -4 43% 5 75.9 0.0
07 03:55 SW 35 16.09 Overcast and Breezy OVC100 6 -1 61% 1 75.87 0.0
07 03:35 W 11 16.09 Overcast BKN100 OVC120 4 1 81% 2 75.9 0.0
07 03:15 SW 4 16.09 Overcast OVC100 4 -1 70% 75.92 0.0
07 02:55 S 7 16.09 Mostly Cloudy BKN110 5 -3 57% 4 75.92 0.0
07 02:15 S 4 16.09 Partly Cloudy SCT110 4 -2 65% 75.97 0.0
07 01:55 S 4 16.09 Overcast OVC110 5 0 70% 76.02 0.0
07 01:35 S 4 16.09 Overcast OVC110 5 0 70% 76.02 0.0
07 01:16 S 6 16.09 Overcast OVC100 5 0 70% 76.05 0.0
07 00:55 S 4 16.09 Overcast OVC100 5 1 13.1 4.4 76% 76.05 0.0
07 00:35 S 4 16.09 Overcast OVC100 5 0 70% 76.05 0.0
07 00:15 Calm 16.09 Mostly Cloudy BKN100 6 0 66% 76.05 0.0
06 23:55 SW 2 16.09 Mostly Cloudy BKN100 5 1 76% 76.05 0.0
06 23:35 SW 4 16.09 Overcast OVC100 5 0 70% 76.07 0.0
06 23:15 SW 4 16.09 Overcast OVC100 6 -1 61% 76.07 0.0
06 22:35 S 2 16.09 Overcast OVC100 6 -3 53% 76.1 0.0
06 22:15 S 4 16.09 Overcast OVC100 7 -3 49% 76.12 0.0
06 21:55 E 2 16.09 Overcast OVC100 8 -3 46% 76.12 0.0
06 21:35 SW 4 16.09 Overcast OVC100 9 -4 40% 76.12 0.0
06 20:55 W 4 16.09 Overcast OVC100 10 -4 37% 76.12 0.0
06 20:35 W 6 16.09 Overcast OVC100 11 -6 30% 76.12 0.0
06 20:15 NW 6 16.09 Mostly Cloudy BKN100 11 -6 30% 76.12 0.0
06 19:55 NW 9 16.09 Mostly Cloudy BKN090 12 -6 28% 76.12 0.0
06 19:35 NW 13 16.09 Overcast OVC090 12 -6 28% 76.12 0.0
06 19:15 NW 19 16.09 Mostly Cloudy BKN090 12 -6 28% 76.12 0.0
06 18:55 NW 15 G 31 16.09 Mostly Cloudy BKN090 13 -6 13.6 9.5 26% 76.12 0.0
06 18:35 W 17 16.09 Mostly Cloudy BKN090 12 -6 28% 76.15 0.0
06 18:15 NW 15 16.09 Mostly Cloudy BKN090 13 -6 26% 76.15 0.0
06 17:55 W 11 16.09 Mostly Cloudy BKN090 13 -5 28% 76.17 0.0
06 17:35 NW 19 G 30 16.09 Mostly Cloudy BKN090 13 -5 28% 76.17 0.0
06 17:15 W 22 G 31 16.09 Overcast OVC090 13 -4 31% 76.2 0.0
06 16:55 NW 17 16.09 Mostly Cloudy BKN090 13 -4 31% 76.2 0.0
06 16:35 NW 22 G 35 16.09 Mostly Cloudy BKN090 12 -5 30% 76.23 0.0
06 16:15 NW 22 16.09 Mostly Cloudy SCT080 BKN090 13 -4 31% 76.23 0.0
06 15:55 W 19 G 31 16.09 Partly Cloudy SCT080 12 -5 30% 76.23 0.0
06 15:35 NW 13 G 35 16.09 Mostly Cloudy BKN080 12 -5 30% 76.25 0.0
06 15:15 NW 22 G 33 16.09 Mostly Cloudy BKN080 12 -5 30% 76.28 0.0
06 14:55 NW 15 G 30 16.09 Mostly Cloudy BKN080 BKN090 12 -3 35% 76.28 0.0
06 14:36 W 22 G 28 16.09 Mostly Cloudy BKN080 11 -5 32% 76.3 0.0
06 14:15 NW 22 G 31 16.09 Mostly Cloudy BKN080 12 -4 33% 76.33 0.0
06 13:56 NW 20 G 35 16.09 Mostly Cloudy BKN080 BKN085 11 -4 35% 76.33 0.0
06 13:35 W 20 G 30 16.09 Overcast OVC070 11 -5 32% 76.35 0.0
06 13:15 NW 22 G 30 16.09 Overcast OVC080 10 -4 37% 7 76.35 0.0
06 12:55 NW 13 G 33 16.09 Mostly Cloudy BKN070 10 -5 11 -2.1 35% 8 76.38 0.0
06 12:35 NW 17 G 33 16.09 Overcast OVC070 11 -3 38% 76.38 0.0
06 12:15 NW 24 G 43 16.09 Overcast OVC070 10 -4 37% 7 76.38 0.0
06 11:55 W 15 G 31 16.09 Overcast OVC070 10 -5 35% 8 76.38 0.0
06 11:35 NW 24 G 33 16.09 Overcast OVC070 9 -5 37% 6 76.4 0.0
06 11:15 NW 17 G 28 16.09 Overcast OVC055 9 -5 37% 7 76.38 0.0
06 10:55 NW 17 G 31 16.09 Overcast OVC055 9 -4 40% 7 76.4 0.0
06 10:35 NW 17 G 26 16.09 Mostly Cloudy BKN055 BKN070 8 -4 43% 6 76.4 0.0
06 10:15 NW 22 G 33 16.09 Partly Cloudy SCT055 8 -4 43% 5 76.38 0.0
06 09:55 NW 19 G 30 16.09 Fair CLR 9 -3 43% 7 76.4 0.0
06 09:35 NW 15 G 28 16.09 Fair CLR 8 -3 46% 6 76.4 0.0
Date Time (cdt) Wind (kph) Vis. (km) Weather Sky Cond. Air Dwpt Max. Min. Relative Humidity Wind Chill (°C) Heat Index (°C) altimeter (cm) sea level (mb) 1 hr 3 hr 6 hr
6 hour
Temperature (ºC) Pressure Precipitation (cm)